createdAt,value
2019-05-29T00:01:39.044Z,1.80
2019-05-29T00:04:08.117Z,2.00
2019-05-29T00:06:36.412Z,2.10
2019-05-29T00:09:06.347Z,1.82
2019-05-29T00:11:34.534Z,1.95
2019-05-29T00:14:17.865Z,1.57
2019-05-29T00:16:32.655Z,1.70
2019-05-29T00:19:00.859Z,1.60
2019-05-29T00:21:29.048Z,1.57
2019-05-29T00:23:57.509Z,1.75
2019-05-29T00:26:26.301Z,1.55
2019-05-29T00:28:54.782Z,1.50
2019-05-29T00:31:22.983Z,1.57
2019-05-29T00:33:51.640Z,1.80
2019-05-29T00:36:20.110Z,1.77
2019-05-29T00:38:48.301Z,1.40
2019-05-29T00:41:17.144Z,2.15
2019-05-29T00:43:45.939Z,1.80
2019-05-29T00:46:15.564Z,1.70
2019-05-29T00:48:43.771Z,1.92
2019-05-29T00:51:12.964Z,1.60
2019-05-29T00:53:41.241Z,1.50
2019-05-29T00:56:10.436Z,1.60
2019-05-29T00:58:41.436Z,1.90
2019-05-29T01:01:11.435Z,2.25
2019-05-29T01:03:39.578Z,1.80
2019-05-29T01:06:07.780Z,2.20
2019-05-29T01:08:36.051Z,1.70
2019-05-29T01:11:04.288Z,1.60
2019-05-29T01:13:32.440Z,1.70
2019-05-29T01:16:00.640Z,1.90
2019-05-29T01:18:28.847Z,1.72
2019-05-29T01:20:57.028Z,1.82
2019-05-29T01:23:25.218Z,1.55
2019-05-29T01:25:53.438Z,1.60
2019-05-29T01:28:23.113Z,1.77
2019-05-29T01:30:51.879Z,1.72
2019-05-29T01:33:23.001Z,1.47
2019-05-29T01:35:49.960Z,1.42
2019-05-29T01:38:19.272Z,1.60
2019-05-29T01:40:47.593Z,1.67
2019-05-29T01:43:15.784Z,1.62
2019-05-29T01:45:43.979Z,1.60
2019-05-29T01:48:12.740Z,1.60
2019-05-29T01:50:40.946Z,1.92
2019-05-29T01:53:09.157Z,1.60
2019-05-29T01:55:37.354Z,1.40
2019-05-29T01:58:05.553Z,1.65
2019-05-29T02:00:33.751Z,1.57
2019-05-29T02:03:02.598Z,1.70
2019-05-29T02:05:30.806Z,1.57
2019-05-29T02:07:58.988Z,1.60
2019-05-29T02:10:27.184Z,1.37
2019-05-29T02:12:55.444Z,1.65
2019-05-29T02:15:31.724Z,1.57
2019-05-29T02:17:53.554Z,1.80
2019-05-29T02:20:23.186Z,1.40
2019-05-29T02:22:51.318Z,1.55
2019-05-29T02:25:22.343Z,1.25
2019-05-29T02:27:50.632Z,1.40
2019-05-29T02:30:21.076Z,1.75
2019-05-29T02:32:48.776Z,1.65
2019-05-29T02:35:17.989Z,1.45
2019-05-29T02:37:46.757Z,1.75
2019-05-29T02:40:15.390Z,1.22
2019-05-29T02:42:43.593Z,1.20
2019-05-29T02:45:11.782Z,1.35
2019-05-29T02:47:40.054Z,1.70
2019-05-29T02:50:08.518Z,1.47
2019-05-29T02:52:36.735Z,1.07
2019-05-29T02:55:07.660Z,1.20
2019-05-29T02:57:35.948Z,1.27
2019-05-29T03:00:06.052Z,1.15
2019-05-29T03:02:34.242Z,1.05
2019-05-29T03:05:02.438Z,1.67
2019-05-29T03:07:32.253Z,1.15
2019-05-29T03:10:00.554Z,1.22
2019-05-29T03:12:29.442Z,1.20
2019-05-29T03:14:58.123Z,1.17
2019-05-29T03:17:27.921Z,1.60
2019-05-29T03:19:56.255Z,1.37
2019-05-29T03:22:26.122Z,1.32
2019-05-29T03:24:54.746Z,1.20
2019-05-29T03:27:22.936Z,1.25
2019-05-29T03:29:51.898Z,1.27
2019-05-29T03:32:20.670Z,1.20
2019-05-29T03:34:48.878Z,1.20
2019-05-29T03:37:17.829Z,1.22
2019-05-29T03:39:46.016Z,1.35
2019-05-29T03:42:14.210Z,1.55
2019-05-29T03:44:42.428Z,1.40
2019-05-29T03:47:11.393Z,1.50
2019-05-29T03:49:39.872Z,1.42
2019-05-29T03:52:08.240Z,1.15
2019-05-29T03:54:36.431Z,1.50
2019-05-29T03:57:05.012Z,1.20
2019-05-29T03:59:35.115Z,1.30
2019-05-29T04:02:03.130Z,1.50
2019-05-29T04:04:32.845Z,1.50
2019-05-29T04:07:02.485Z,1.30
2019-05-29T04:09:31.407Z,1.30
2019-05-29T04:12:00.277Z,1.20
2019-05-29T04:14:29.751Z,1.20
2019-05-29T04:17:00.295Z,1.30
2019-05-29T04:19:30.041Z,1.30
2019-05-29T04:21:59.132Z,1.37
2019-05-29T04:24:28.024Z,1.42
2019-05-29T04:26:56.666Z,1.45
2019-05-29T04:29:24.859Z,1.12
2019-05-29T04:31:53.619Z,1.07
2019-05-29T04:34:21.817Z,1.40
2019-05-29T04:36:50.582Z,1.20
2019-05-29T04:39:18.774Z,1.32
2019-05-29T04:41:46.971Z,1.37
2019-05-29T04:44:15.938Z,1.00
2019-05-29T04:46:45.706Z,1.52
2019-05-29T04:49:13.897Z,1.17
2019-05-29T04:51:42.093Z,1.42
2019-05-29T04:54:10.793Z,1.10
2019-05-29T04:56:39.200Z,1.12
2019-05-29T04:59:09.002Z,1.25
2019-05-29T05:01:37.780Z,0.90
2019-05-29T05:04:06.061Z,1.30
2019-05-29T05:06:35.285Z,1.20
2019-05-29T05:09:05.066Z,1.60
2019-05-29T05:11:33.400Z,1.22
2019-05-29T05:14:01.969Z,1.00
2019-05-29T05:16:30.195Z,1.15
2019-05-29T05:18:58.398Z,1.20
2019-05-29T05:21:26.591Z,1.10
2019-05-29T05:23:56.953Z,1.50
2019-05-29T05:28:54.089Z,1.10
2019-05-29T05:31:22.269Z,1.05
2019-05-29T05:33:50.506Z,1.07
2019-05-29T05:36:18.695Z,1.00
2019-05-29T05:38:47.670Z,0.80
2019-05-29T05:41:15.855Z,1.05
2019-05-29T05:43:44.820Z,1.22
2019-05-29T05:46:13.005Z,0.95
2019-05-29T05:48:41.658Z,0.98
2019-05-29T05:51:09.971Z,0.98
2019-05-29T05:53:38.171Z,0.88
2019-05-29T05:56:06.366Z,1.07
2019-05-29T05:58:35.690Z,0.80
2019-05-29T06:01:04.056Z,0.97
2019-05-29T06:03:32.255Z,1.00
2019-05-29T06:06:00.444Z,0.90
2019-05-29T06:08:28.649Z,0.88
2019-05-29T06:10:56.910Z,1.00
2019-05-29T06:13:25.112Z,0.90
2019-05-29T06:15:53.314Z,0.80
2019-05-29T06:18:23.083Z,1.25
2019-05-29T06:20:51.849Z,0.80
2019-05-29T06:23:20.055Z,0.72
2019-05-29T06:25:48.251Z,0.60
2019-05-29T06:28:17.215Z,0.80
2019-05-29T06:30:45.428Z,0.53
2019-05-29T06:33:13.617Z,0.70
2019-05-29T06:35:41.817Z,0.65
2019-05-29T06:38:10.016Z,0.80
2019-05-29T06:40:43.911Z,0.50
2019-05-29T06:43:23.854Z,0.80
2019-05-29T06:45:52.378Z,0.80
2019-05-29T06:48:41.722Z,0.85
2019-05-29T06:50:57.411Z,0.70
2019-05-29T06:53:24.995Z,0.70
2019-05-29T06:55:54.925Z,0.65
2019-05-29T06:58:23.183Z,0.88
2019-05-29T07:00:51.376Z,0.60
2019-05-29T07:03:19.587Z,0.90
2019-05-29T07:05:52.322Z,1.00
2019-05-29T07:08:24.149Z,0.95
2019-05-29T07:10:48.508Z,0.70
2019-05-29T07:13:16.796Z,0.90
2019-05-29T07:15:45.732Z,0.80
2019-05-29T07:18:15.017Z,1.15
2019-05-29T07:20:43.289Z,0.75
2019-05-29T07:23:11.479Z,0.90
2019-05-29T07:25:40.820Z,0.88
2019-05-29T07:28:09.932Z,0.83
2019-05-29T07:30:39.185Z,0.75
2019-05-29T07:33:07.582Z,0.87
2019-05-29T07:35:37.132Z,0.80
2019-05-29T07:38:05.448Z,1.10
2019-05-29T07:40:35.992Z,0.90
2019-05-29T07:43:04.320Z,1.07
2019-05-29T07:45:32.522Z,0.80
2019-05-29T07:48:00.714Z,0.50
2019-05-29T07:50:28.917Z,0.82
2019-05-29T07:52:57.138Z,1.10
2019-05-29T07:55:26.152Z,0.30
2019-05-29T07:57:54.374Z,0.50
2019-05-29T08:00:22.559Z,0.62
2019-05-29T08:02:50.748Z,0.50
2019-05-29T08:05:20.293Z,0.57
2019-05-29T08:07:49.682Z,0.50
2019-05-29T08:10:20.970Z,0.30
2019-05-29T08:12:54.266Z,0.50
2019-05-29T08:15:19.603Z,0.68
2019-05-29T08:17:48.461Z,0.55
2019-05-29T08:20:16.664Z,0.60
2019-05-29T08:22:46.439Z,0.50
2019-05-29T08:25:14.741Z,0.50
2019-05-29T08:27:42.931Z,0.65
2019-05-29T08:30:11.210Z,0.53
2019-05-29T08:32:40.819Z,0.88
2019-05-29T08:35:09.148Z,0.75
2019-05-29T08:37:37.346Z,0.55
2019-05-29T08:40:07.167Z,0.55
2019-05-29T08:42:35.358Z,0.80
2019-05-29T08:45:07.775Z,0.90
2019-05-29T08:47:35.956Z,0.57
2019-05-29T08:50:18.298Z,1.30
2019-05-29T08:52:37.526Z,0.70
2019-05-29T08:55:05.907Z,0.57
2019-05-29T08:57:34.101Z,0.45
2019-05-29T09:00:02.471Z,0.55
2019-05-29T09:02:30.665Z,0.40
2019-05-29T09:04:58.875Z,0.60
2019-05-29T09:07:27.070Z,0.62
2019-05-29T09:09:55.750Z,0.60
2019-05-29T09:12:24.743Z,0.47
2019-05-29T09:14:52.933Z,0.50
2019-05-29T09:17:22.147Z,0.60
2019-05-29T09:19:50.387Z,0.50
2019-05-29T09:22:19.182Z,0.62
2019-05-29T09:24:47.357Z,0.72
2019-05-29T09:27:17.146Z,0.68
2019-05-29T09:29:45.339Z,0.50
2019-05-29T09:32:15.075Z,0.70
2019-05-29T09:34:47.325Z,0.68
2019-05-29T09:37:14.192Z,0.60
2019-05-29T09:39:43.298Z,0.70
2019-05-29T09:42:11.497Z,0.68
2019-05-29T09:44:40.253Z,1.00
2019-05-29T09:47:08.568Z,0.53
2019-05-29T09:49:36.763Z,0.80
2019-05-29T09:52:05.133Z,0.60
2019-05-29T09:54:33.481Z,0.60
2019-05-29T09:57:02.838Z,0.50
2019-05-29T09:59:31.351Z,0.60
2019-05-29T10:02:03.492Z,0.88
2019-05-29T10:04:33.030Z,0.78
2019-05-29T10:07:02.410Z,0.60
2019-05-29T10:09:32.042Z,0.62
2019-05-29T10:12:04.107Z,0.60
2019-05-29T10:14:30.154Z,0.70
2019-05-29T10:17:02.089Z,0.90
2019-05-29T10:19:28.283Z,0.80
2019-05-29T10:21:58.318Z,0.82
2019-05-29T10:24:27.084Z,0.70
2019-05-29T10:26:55.542Z,0.90
2019-05-29T10:29:25.175Z,0.75
2019-05-29T10:31:53.631Z,0.82
2019-05-29T10:34:21.852Z,1.30
2019-05-29T10:36:53.019Z,0.95
2019-05-29T10:39:19.978Z,0.72
2019-05-29T10:41:48.862Z,1.12
2019-05-29T10:44:17.159Z,0.60
2019-05-29T10:46:48.384Z,0.82
2019-05-29T10:49:16.152Z,0.80
2019-05-29T10:52:00.267Z,0.68
2019-05-29T10:54:14.276Z,0.70
2019-05-29T10:56:42.479Z,0.90
2019-05-29T10:59:11.515Z,0.60
2019-05-29T11:01:39.722Z,0.82
2019-05-29T11:04:08.684Z,0.50
2019-05-29T11:06:40.534Z,0.70
2019-05-29T11:09:07.173Z,0.68
2019-05-29T11:11:35.373Z,1.12
2019-05-29T11:14:03.833Z,0.78
2019-05-29T11:16:32.126Z,0.90
2019-05-29T11:19:00.302Z,0.75
2019-05-29T11:21:28.634Z,0.80
2019-05-29T11:23:58.205Z,0.68
2019-05-29T11:26:27.135Z,0.80
2019-05-29T11:28:56.530Z,0.78
2019-05-29T11:31:24.910Z,0.80
2019-05-29T11:33:53.239Z,0.80
2019-05-29T11:36:21.380Z,0.70
2019-05-29T11:38:50.500Z,0.70
2019-05-29T11:41:26.168Z,0.70
2019-05-29T11:43:50.666Z,0.80
2019-05-29T11:46:18.956Z,0.70
2019-05-29T11:48:47.324Z,0.40
2019-05-29T11:51:15.516Z,0.50
2019-05-29T11:53:43.719Z,0.50
2019-05-29T11:56:12.039Z,0.45
2019-05-29T11:58:41.010Z,0.85
2019-05-29T12:01:09.195Z,0.40
2019-05-29T12:03:57.844Z,0.40
2019-05-29T12:06:07.395Z,0.40
2019-05-29T12:08:35.599Z,0.60
2019-05-29T12:11:06.938Z,0.50
2019-05-29T12:13:34.490Z,0.55
2019-05-29T12:16:02.863Z,0.50
2019-05-29T12:18:31.059Z,0.60
2019-05-29T12:21:01.105Z,0.68
2019-05-29T12:23:29.189Z,0.70
2019-05-29T12:26:18.823Z,0.50
2019-05-29T12:28:27.605Z,0.60
2019-05-29T12:30:56.893Z,0.53
2019-05-29T12:33:25.182Z,0.63
2019-05-29T12:35:53.366Z,0.70
2019-05-29T12:38:21.606Z,0.80
2019-05-29T12:40:49.772Z,0.82
2019-05-29T12:43:27.331Z,0.70
2019-05-29T12:48:16.903Z,0.55
2019-05-29T12:50:45.424Z,0.50
2019-05-29T12:53:29.021Z,0.60
2019-05-29T12:55:43.505Z,0.47
2019-05-29T12:58:11.752Z,0.55
2019-05-29T13:00:39.947Z,0.60
2019-05-29T13:03:08.616Z,0.50
2019-05-29T13:05:36.810Z,0.80
2019-05-29T13:08:05.414Z,0.60
2019-05-29T13:10:33.552Z,0.85
2019-05-29T13:13:08.430Z,0.60
2019-05-29T13:15:31.726Z,0.60
2019-05-29T13:18:03.983Z,0.68
2019-05-29T13:20:29.959Z,0.60
2019-05-29T13:22:59.645Z,0.42
2019-05-29T13:25:28.165Z,0.70
2019-05-29T13:27:59.868Z,0.55
2019-05-29T13:30:28.424Z,0.50
2019-05-29T13:33:00.066Z,0.40
2019-05-29T13:35:26.660Z,0.57
2019-05-29T13:37:54.957Z,0.65
2019-05-29T13:40:23.152Z,0.50
2019-05-29T13:42:51.382Z,0.60
2019-05-29T13:45:21.115Z,0.57
2019-05-29T13:47:49.881Z,0.70
2019-05-29T13:50:18.239Z,0.60
2019-05-29T13:52:46.440Z,0.70
2019-05-29T13:55:14.634Z,0.68
2019-05-29T13:57:42.840Z,0.50
2019-05-29T14:00:33.941Z,0.60
2019-05-29T14:02:43.730Z,0.53
2019-05-29T14:05:11.924Z,0.65
2019-05-29T14:07:40.119Z,0.70
2019-05-29T14:10:09.616Z,0.55
2019-05-29T14:12:39.632Z,0.78
2019-05-29T14:15:09.835Z,0.60
2019-05-29T14:20:06.786Z,0.45
2019-05-29T14:22:35.027Z,0.68
2019-05-29T14:25:05.311Z,0.60
2019-05-29T14:27:34.040Z,0.50
2019-05-29T14:30:03.866Z,0.65
2019-05-29T14:32:32.940Z,0.60
2019-05-29T14:35:04.285Z,0.80
2019-05-29T14:37:31.583Z,0.72
2019-05-29T14:40:01.604Z,0.60
2019-05-29T14:42:30.445Z,0.60
2019-05-29T14:44:59.244Z,0.80
2019-05-29T14:47:29.014Z,0.70
2019-05-29T14:49:57.219Z,0.65
2019-05-29T14:52:25.411Z,0.60
2019-05-29T14:54:53.618Z,0.60
2019-05-29T14:57:26.049Z,0.70
2019-05-29T14:59:51.755Z,0.50
2019-05-29T15:02:23.902Z,0.65
2019-05-29T15:04:49.856Z,0.62
2019-05-29T15:07:22.800Z,0.70
2019-05-29T15:09:50.010Z,0.85
2019-05-29T15:12:18.192Z,0.60
2019-05-29T15:14:46.392Z,0.60
2019-05-29T15:17:15.494Z,0.65
2019-05-29T15:19:43.874Z,0.70
2019-05-29T15:22:13.960Z,0.70
2019-05-29T15:24:59.651Z,0.68
2019-05-29T15:27:12.229Z,0.80
2019-05-29T15:29:40.434Z,0.50
2019-05-29T15:32:10.367Z,0.68
2019-05-29T15:34:40.147Z,0.50
2019-05-29T15:37:12.192Z,0.50
2019-05-29T15:39:39.838Z,0.70
2019-05-29T15:42:08.932Z,0.60
2019-05-29T15:44:37.218Z,0.55
2019-05-29T15:47:06.768Z,0.50
2019-05-29T15:49:36.668Z,0.75
2019-05-29T15:52:05.027Z,0.50
2019-05-29T15:54:33.243Z,0.85
2019-05-29T15:57:01.414Z,0.70
2019-05-29T15:59:29.604Z,0.90
2019-05-29T16:01:58.582Z,0.82
2019-05-29T16:04:27.258Z,0.72
2019-05-29T16:06:56.060Z,0.50
2019-05-29T16:09:24.253Z,0.60
2019-05-29T16:11:52.494Z,0.70
2019-05-29T16:14:20.666Z,0.70
2019-05-29T16:16:48.863Z,0.70
2019-05-29T16:19:18.295Z,0.68
2019-05-29T16:21:46.544Z,0.80
2019-05-29T16:24:14.758Z,0.65
2019-05-29T16:26:42.949Z,0.90
2019-05-29T16:29:12.256Z,0.70
2019-05-29T16:31:40.722Z,0.75
2019-05-29T16:34:08.974Z,0.62
2019-05-29T16:36:37.406Z,0.70
2019-05-29T16:39:09.016Z,0.55
2019-05-29T16:41:37.213Z,0.70
2019-05-29T16:44:05.406Z,0.60
2019-05-29T16:46:33.615Z,0.62
2019-05-29T16:49:02.484Z,0.40
2019-05-29T16:51:30.681Z,0.62
2019-05-29T16:53:58.868Z,0.60
2019-05-29T16:56:27.080Z,0.88
2019-05-29T16:58:55.273Z,0.70
2019-05-29T17:01:23.957Z,0.80
2019-05-29T17:03:52.249Z,0.80
2019-05-29T17:06:20.448Z,0.80
2019-05-29T17:08:48.647Z,0.70
2019-05-29T17:11:16.845Z,0.62
2019-05-29T17:13:45.043Z,0.70
2019-05-29T17:16:14.364Z,0.68
2019-05-29T17:18:43.173Z,0.80
2019-05-29T17:21:11.381Z,0.78
2019-05-29T17:23:40.353Z,0.78
2019-05-29T17:26:11.065Z,0.80
2019-05-29T17:31:06.920Z,0.70
2019-05-29T17:33:35.119Z,0.78
2019-05-29T17:36:03.315Z,0.70
2019-05-29T17:38:31.518Z,0.60
2019-05-29T17:40:59.740Z,0.80
2019-05-29T17:43:28.721Z,0.70
2019-05-29T17:45:57.283Z,0.90
2019-05-29T17:48:27.535Z,0.60
2019-05-29T17:50:55.940Z,0.72
2019-05-29T17:53:28.848Z,0.75
2019-05-29T17:55:57.267Z,0.70
2019-05-29T17:58:26.687Z,0.80
2019-05-29T18:00:54.932Z,0.90
2019-05-29T18:03:24.233Z,0.78
2019-05-29T18:05:52.583Z,0.60
2019-05-29T18:08:20.826Z,0.70
2019-05-29T18:10:49.026Z,0.80
2019-05-29T18:13:17.239Z,0.80
2019-05-29T18:15:45.443Z,0.72
2019-05-29T18:18:14.405Z,0.70
2019-05-29T18:20:42.596Z,0.80
2019-05-29T18:23:10.803Z,0.80
2019-05-29T18:25:38.992Z,0.90
2019-05-29T18:28:07.191Z,0.65
2019-05-29T18:30:35.386Z,0.80
2019-05-29T18:33:03.583Z,0.90
2019-05-29T18:35:31.772Z,0.80
2019-05-29T18:37:59.978Z,0.82
2019-05-29T18:40:28.499Z,0.70
2019-05-29T18:42:56.700Z,0.90
2019-05-29T18:45:26.258Z,0.90
2019-05-29T18:47:55.192Z,0.70
2019-05-29T18:50:23.665Z,0.93
2019-05-29T18:52:52.674Z,0.70
2019-05-29T18:55:20.916Z,0.82
2019-05-29T18:57:49.116Z,0.90
2019-05-29T19:00:17.849Z,0.90
2019-05-29T19:02:48.811Z,0.80
2019-05-29T19:05:17.013Z,0.82
2019-05-29T19:07:45.586Z,0.90
2019-05-29T19:10:14.354Z,0.93
2019-05-29T19:12:42.591Z,0.80
2019-05-29T19:15:10.791Z,0.90
2019-05-29T19:17:38.996Z,0.82
2019-05-29T19:20:07.220Z,1.02
2019-05-29T19:22:35.639Z,0.70
2019-05-29T19:25:05.155Z,0.80
2019-05-29T19:27:41.602Z,0.87
2019-05-29T19:30:05.420Z,0.80
2019-05-29T19:32:34.009Z,0.90
2019-05-29T19:35:02.736Z,0.70
2019-05-29T19:37:32.107Z,1.00
2019-05-29T19:40:11.183Z,1.07
2019-05-29T19:42:39.385Z,0.85
2019-05-29T19:45:08.318Z,0.93
2019-05-29T19:47:36.989Z,0.72
2019-05-29T19:50:11.191Z,1.10
2019-05-29T19:52:38.581Z,0.90
2019-05-29T19:55:07.078Z,0.90
2019-05-29T19:57:53.916Z,0.70
2019-05-29T20:00:08.117Z,0.98
2019-05-29T20:02:37.893Z,0.80
2019-05-29T20:05:06.380Z,0.93
2019-05-29T20:07:35.251Z,0.85
2019-05-29T20:10:03.842Z,0.90
2019-05-29T20:12:33.760Z,0.72
2019-05-29T20:15:02.012Z,0.90
2019-05-29T20:17:30.533Z,0.98
2019-05-29T20:19:58.872Z,1.10
2019-05-29T20:22:28.467Z,0.78
2019-05-29T20:24:57.507Z,0.90
2019-05-29T20:27:26.268Z,1.00
2019-05-29T20:29:54.616Z,1.00
2019-05-29T20:32:22.861Z,1.00
2019-05-29T20:34:54.055Z,1.30
2019-05-29T20:44:18.985Z,1.20
2019-05-29T20:46:47.180Z,0.93
2019-05-29T20:49:15.387Z,0.90
2019-05-29T20:51:43.583Z,1.12
2019-05-29T20:54:11.807Z,0.93
2019-05-29T20:56:40.063Z,1.00
2019-05-29T20:59:08.355Z,1.10
2019-05-29T21:01:40.946Z,1.10
2019-05-29T21:04:06.606Z,0.95
2019-05-29T21:06:34.798Z,0.80
2019-05-29T21:09:03.002Z,1.10
2019-05-29T21:11:31.200Z,0.88
2019-05-29T21:14:00.187Z,1.00
2019-05-29T21:16:28.361Z,1.00
2019-05-29T21:18:56.572Z,0.90
2019-05-29T21:21:24.765Z,1.22
2019-05-29T21:23:52.974Z,0.70
2019-05-29T21:26:21.948Z,0.95
2019-05-29T21:28:50.922Z,0.90
2019-05-29T21:31:19.325Z,1.30
2019-05-29T21:33:49.341Z,1.00
2019-05-29T21:36:17.692Z,0.93
2019-05-29T21:38:46.478Z,0.85
2019-05-29T21:41:15.344Z,0.90
2019-05-29T21:43:44.692Z,0.82
2019-05-29T21:46:13.084Z,0.90
2019-05-29T21:48:41.283Z,1.02
2019-05-29T21:51:09.544Z,1.00
2019-05-29T21:53:37.743Z,1.07
2019-05-29T21:56:05.956Z,1.00
2019-05-29T21:58:34.449Z,1.00
2019-05-29T22:01:03.223Z,1.10
2019-05-29T22:03:31.476Z,1.10
2019-05-29T22:05:59.650Z,0.80
2019-05-29T22:08:29.180Z,1.10
2019-05-29T22:10:57.555Z,1.00
2019-05-29T22:13:25.752Z,1.87
2019-05-29T22:15:54.809Z,1.00
2019-05-29T22:18:23.110Z,1.57
2019-05-29T22:21:46.172Z,0.90
2019-05-29T22:24:14.392Z,1.00
2019-05-29T22:26:42.621Z,0.98
2019-05-29T22:29:17.834Z,0.90
2019-05-29T22:31:40.822Z,1.00
2019-05-29T22:34:09.044Z,1.20
2019-05-29T22:36:40.282Z,1.07
2019-05-29T22:39:08.473Z,0.90
2019-05-29T22:41:36.691Z,1.70
2019-05-29T22:44:04.895Z,1.10
2019-05-29T22:46:33.112Z,1.00
2019-05-29T22:49:02.046Z,1.40
2019-05-29T22:51:30.347Z,1.30
2019-05-29T22:53:58.563Z,1.15
2019-05-29T22:56:26.984Z,1.10
2019-05-29T22:58:56.022Z,1.10
2019-05-29T23:01:24.286Z,0.98
2019-05-29T23:03:52.503Z,0.90
2019-05-29T23:06:20.802Z,1.20
2019-05-29T23:08:52.053Z,1.17
2019-05-29T23:11:20.426Z,0.80
2019-05-29T23:13:48.619Z,1.20
2019-05-29T23:16:16.857Z,1.25
2019-05-29T23:18:45.055Z,1.00
2019-05-29T23:21:13.277Z,1.07
2019-05-29T23:23:41.464Z,1.00
2019-05-29T23:26:09.664Z,0.72
2019-05-29T23:28:38.632Z,1.00
2019-05-29T23:31:06.832Z,1.20
2019-05-29T23:33:35.358Z,0.90
2019-05-29T23:36:03.560Z,0.65
2019-05-29T23:38:31.747Z,0.70
2019-05-29T23:40:59.947Z,0.62
2019-05-29T23:43:28.156Z,0.95
2019-05-29T23:45:57.413Z,0.90
2019-05-29T23:48:25.701Z,0.93
2019-05-29T23:50:53.913Z,1.00
2019-05-29T23:53:22.111Z,0.70
2019-05-29T23:55:50.786Z,0.82
2019-05-29T23:58:18.984Z,0.82
